sensor_id;sensor_type;location;lat;lon;timestamp;temperature;humidity
41058;DHT22;66768;48.884;2.258;2023-09-07T00:00:39;24.80;96.30
41058;DHT22;66768;48.884;2.258;2023-09-07T00:03:06;24.80;96.40
41058;DHT22;66768;48.884;2.258;2023-09-07T00:05:33;24.70;96.30
41058;DHT22;66768;48.884;2.258;2023-09-07T00:08:00;24.70;96.30
41058;DHT22;66768;48.884;2.258;2023-09-07T00:10:27;24.70;96.30
41058;DHT22;66768;48.884;2.258;2023-09-07T00:12:55;24.70;96.40
41058;DHT22;66768;48.884;2.258;2023-09-07T00:15:22;24.70;96.40
41058;DHT22;66768;48.884;2.258;2023-09-07T00:17:51;24.60;96.40
41058;DHT22;66768;48.884;2.258;2023-09-07T00:20:18;24.60;96.40
41058;DHT22;66768;48.884;2.258;2023-09-07T00:22:47;24.50;96.50
41058;DHT22;66768;48.884;2.258;2023-09-07T00:25:14;24.50;96.50
41058;DHT22;66768;48.884;2.258;2023-09-07T00:27:41;24.50;96.50
41058;DHT22;66768;48.884;2.258;2023-09-07T00:30:10;24.50;96.60
41058;DHT22;66768;48.884;2.258;2023-09-07T00:32:37;24.50;96.80
41058;DHT22;66768;48.884;2.258;2023-09-07T00:35:05;24.50;96.50
41058;DHT22;66768;48.884;2.258;2023-09-07T00:37:32;24.40;96.70
41058;DHT22;66768;48.884;2.258;2023-09-07T00:39:59;24.40;96.50
41058;DHT22;66768;48.884;2.258;2023-09-07T00:42:26;24.40;96.40
41058;DHT22;66768;48.884;2.258;2023-09-07T00:44:53;24.40;96.40
41058;DHT22;66768;48.884;2.258;2023-09-07T00:47:22;24.40;96.50
41058;DHT22;66768;48.884;2.258;2023-09-07T00:49:49;24.40;96.30
41058;DHT22;66768;48.884;2.258;2023-09-07T00:52:17;24.40;96.20
41058;DHT22;66768;48.884;2.258;2023-09-07T00:54:45;24.40;96.20
41058;DHT22;66768;48.884;2.258;2023-09-07T00:57:12;24.30;96.10
41058;DHT22;66768;48.884;2.258;2023-09-07T00:59:38;24.30;96.00
41058;DHT22;66768;48.884;2.258;2023-09-07T01:02:05;24.30;96.30
41058;DHT22;66768;48.884;2.258;2023-09-07T01:04:33;24.30;96.00
41058;DHT22;66768;48.884;2.258;2023-09-07T01:07:03;24.30;96.00
41058;DHT22;66768;48.884;2.258;2023-09-07T01:09:35;24.20;96.00
41058;DHT22;66768;48.884;2.258;2023-09-07T01:12:03;24.20;96.00
41058;DHT22;66768;48.884;2.258;2023-09-07T01:14:30;24.20;96.10
41058;DHT22;66768;48.884;2.258;2023-09-07T01:16:57;24.20;96.20
41058;DHT22;66768;48.884;2.258;2023-09-07T01:19:24;24.10;96.20
41058;DHT22;66768;48.884;2.258;2023-09-07T01:21:53;24.10;96.20
41058;DHT22;66768;48.884;2.258;2023-09-07T01:24:21;24.10;96.20
41058;DHT22;66768;48.884;2.258;2023-09-07T01:26:49;24.00;96.10
41058;DHT22;66768;48.884;2.258;2023-09-07T01:29:16;24.00;96.20
41058;DHT22;66768;48.884;2.258;2023-09-07T01:31:43;24.00;96.30
41058;DHT22;66768;48.884;2.258;2023-09-07T01:34:10;24.00;96.30
41058;DHT22;66768;48.884;2.258;2023-09-07T01:36:37;24.00;96.50
41058;DHT22;66768;48.884;2.258;2023-09-07T01:39:05;24.00;96.50
41058;DHT22;66768;48.884;2.258;2023-09-07T01:41:32;23.90;96.40
41058;DHT22;66768;48.884;2.258;2023-09-07T01:44:00;23.90;96.40
41058;DHT22;66768;48.884;2.258;2023-09-07T01:46:26;23.90;96.40
41058;DHT22;66768;48.884;2.258;2023-09-07T01:48:53;23.80;96.40
41058;DHT22;66768;48.884;2.258;2023-09-07T01:51:20;23.80;96.40
41058;DHT22;66768;48.884;2.258;2023-09-07T01:53:47;23.80;96.50
41058;DHT22;66768;48.884;2.258;2023-09-07T01:56:16;23.70;96.40
41058;DHT22;66768;48.884;2.258;2023-09-07T01:58:43;23.70;96.40
41058;DHT22;66768;48.884;2.258;2023-09-07T02:01:20;23.70;96.30
41058;DHT22;66768;48.884;2.258;2023-09-07T02:03:48;23.70;96.30
41058;DHT22;66768;48.884;2.258;2023-09-07T02:06:15;23.70;96.30
41058;DHT22;66768;48.884;2.258;2023-09-07T02:08:41;23.70;96.30
41058;DHT22;66768;48.884;2.258;2023-09-07T02:11:08;23.70;96.20
41058;DHT22;66768;48.884;2.258;2023-09-07T02:13:37;23.60;96.20
41058;DHT22;66768;48.884;2.258;2023-09-07T02:16:04;23.60;96.20
41058;DHT22;66768;48.884;2.258;2023-09-07T02:18:32;23.60;96.30
41058;DHT22;66768;48.884;2.258;2023-09-07T02:21:01;23.60;96.30
41058;DHT22;66768;48.884;2.258;2023-09-07T02:23:29;23.60;96.40
41058;DHT22;66768;48.884;2.258;2023-09-07T02:25:56;23.60;96.40
41058;DHT22;66768;48.884;2.258;2023-09-07T02:28:23;23.60;96.30
41058;DHT22;66768;48.884;2.258;2023-09-07T02:30:51;23.50;96.30
41058;DHT22;66768;48.884;2.258;2023-09-07T02:33:18;23.50;96.50
41058;DHT22;66768;48.884;2.258;2023-09-07T02:35:47;23.50;96.50
41058;DHT22;66768;48.884;2.258;2023-09-07T02:38:14;23.40;96.60
41058;DHT22;66768;48.884;2.258;2023-09-07T02:40:41;23.40;96.50
41058;DHT22;66768;48.884;2.258;2023-09-07T02:43:08;23.30;96.50
41058;DHT22;66768;48.884;2.258;2023-09-07T02:45:35;23.30;96.50
41058;DHT22;66768;48.884;2.258;2023-09-07T02:48:04;23.20;96.50
41058;DHT22;66768;48.884;2.258;2023-09-07T02:50:33;23.20;96.50
41058;DHT22;66768;48.884;2.258;2023-09-07T02:53:01;23.20;96.60
41058;DHT22;66768;48.884;2.258;2023-09-07T02:55:28;23.20;96.60
41058;DHT22;66768;48.884;2.258;2023-09-07T02:57:56;23.20;96.60
41058;DHT22;66768;48.884;2.258;2023-09-07T03:00:23;23.10;96.70
41058;DHT22;66768;48.884;2.258;2023-09-07T03:02:50;23.10;96.70
41058;DHT22;66768;48.884;2.258;2023-09-07T03:05:19;23.10;96.70
41058;DHT22;66768;48.884;2.258;2023-09-07T03:07:46;23.10;96.70
41058;DHT22;66768;48.884;2.258;2023-09-07T03:10:13;23.10;96.80
41058;DHT22;66768;48.884;2.258;2023-09-07T03:12:40;23.10;96.80
41058;DHT22;66768;48.884;2.258;2023-09-07T03:15:07;23.10;96.80
41058;DHT22;66768;48.884;2.258;2023-09-07T03:17:34;23.10;96.90
41058;DHT22;66768;48.884;2.258;2023-09-07T03:20:01;23.10;97.00
41058;DHT22;66768;48.884;2.258;2023-09-07T03:22:35;23.10;97.10
41058;DHT22;66768;48.884;2.258;2023-09-07T03:25:01;23.10;96.90
41058;DHT22;66768;48.884;2.258;2023-09-07T03:27:28;23.10;96.90
41058;DHT22;66768;48.884;2.258;2023-09-07T03:29:55;23.10;96.80
41058;DHT22;66768;48.884;2.258;2023-09-07T03:32:22;23.00;96.90
41058;DHT22;66768;48.884;2.258;2023-09-07T03:34:49;23.00;96.90
41058;DHT22;66768;48.884;2.258;2023-09-07T03:37:15;23.00;96.90
41058;DHT22;66768;48.884;2.258;2023-09-07T03:39:44;23.00;97.00
41058;DHT22;66768;48.884;2.258;2023-09-07T03:42:10;23.00;97.00
41058;DHT22;66768;48.884;2.258;2023-09-07T03:44:37;23.00;97.00
41058;DHT22;66768;48.884;2.258;2023-09-07T03:47:05;22.90;97.00
41058;DHT22;66768;48.884;2.258;2023-09-07T03:49:32;22.90;97.10
41058;DHT22;66768;48.884;2.258;2023-09-07T03:51:59;22.90;97.10
41058;DHT22;66768;48.884;2.258;2023-09-07T03:54:26;22.90;97.20
41058;DHT22;66768;48.884;2.258;2023-09-07T03:56:54;22.80;97.20
41058;DHT22;66768;48.884;2.258;2023-09-07T03:59:21;22.80;97.30
41058;DHT22;66768;48.884;2.258;2023-09-07T04:01:48;22.80;97.30
41058;DHT22;66768;48.884;2.258;2023-09-07T04:04:15;22.80;97.70
41058;DHT22;66768;48.884;2.258;2023-09-07T04:06:42;22.80;97.50
41058;DHT22;66768;48.884;2.258;2023-09-07T04:09:09;22.80;97.40
41058;DHT22;66768;48.884;2.258;2023-09-07T04:11:35;22.80;97.50
41058;DHT22;66768;48.884;2.258;2023-09-07T04:14:04;22.70;97.50
41058;DHT22;66768;48.884;2.258;2023-09-07T04:16:30;22.70;97.50
41058;DHT22;66768;48.884;2.258;2023-09-07T04:18:57;22.70;97.60
41058;DHT22;66768;48.884;2.258;2023-09-07T04:21:24;22.60;97.70
41058;DHT22;66768;48.884;2.258;2023-09-07T04:23:51;22.70;97.70
41058;DHT22;66768;48.884;2.258;2023-09-07T04:26:18;22.60;97.70
41058;DHT22;66768;48.884;2.258;2023-09-07T04:28:45;22.60;97.80
41058;DHT22;66768;48.884;2.258;2023-09-07T04:31:13;22.60;97.80
41058;DHT22;66768;48.884;2.258;2023-09-07T04:33:40;22.60;97.90
41058;DHT22;66768;48.884;2.258;2023-09-07T04:36:08;22.60;97.90
41058;DHT22;66768;48.884;2.258;2023-09-07T04:38:35;22.60;98.00
41058;DHT22;66768;48.884;2.258;2023-09-07T04:41:06;22.50;98.00
41058;DHT22;66768;48.884;2.258;2023-09-07T04:43:33;22.50;98.00
41058;DHT22;66768;48.884;2.258;2023-09-07T04:46:00;22.50;98.10
41058;DHT22;66768;48.884;2.258;2023-09-07T04:48:28;22.50;98.10
41058;DHT22;66768;48.884;2.258;2023-09-07T04:50:58;22.50;98.20
41058;DHT22;66768;48.884;2.258;2023-09-07T04:53:27;22.50;98.20
41058;DHT22;66768;48.884;2.258;2023-09-07T04:55:54;22.50;98.30
41058;DHT22;66768;48.884;2.258;2023-09-07T04:58:21;22.50;98.50
41058;DHT22;66768;48.884;2.258;2023-09-07T05:00:48;22.50;98.70
41058;DHT22;66768;48.884;2.258;2023-09-07T05:03:15;22.50;98.50
41058;DHT22;66768;48.884;2.258;2023-09-07T05:05:43;22.40;98.40
41058;DHT22;66768;48.884;2.258;2023-09-07T05:08:10;22.40;98.50
41058;DHT22;66768;48.884;2.258;2023-09-07T05:10:38;22.40;98.40
41058;DHT22;66768;48.884;2.258;2023-09-07T05:13:04;22.30;98.30
41058;DHT22;66768;48.884;2.258;2023-09-07T05:15:31;22.40;98.50
41058;DHT22;66768;48.884;2.258;2023-09-07T05:17:58;22.40;98.50
41058;DHT22;66768;48.884;2.258;2023-09-07T05:20:25;22.30;98.60
41058;DHT22;66768;48.884;2.258;2023-09-07T05:22:54;22.30;98.70
41058;DHT22;66768;48.884;2.258;2023-09-07T05:25:22;22.30;98.70
41058;DHT22;66768;48.884;2.258;2023-09-07T05:27:49;22.30;98.70
41058;DHT22;66768;48.884;2.258;2023-09-07T05:30:15;22.30;98.70
41058;DHT22;66768;48.884;2.258;2023-09-07T05:32:42;22.30;98.90
41058;DHT22;66768;48.884;2.258;2023-09-07T05:35:09;22.30;98.90
41058;DHT22;66768;48.884;2.258;2023-09-07T05:37:37;22.20;98.80
41058;DHT22;66768;48.884;2.258;2023-09-07T05:40:07;22.20;98.80
41058;DHT22;66768;48.884;2.258;2023-09-07T05:42:34;22.20;98.90
41058;DHT22;66768;48.884;2.258;2023-09-07T05:45:01;22.20;98.90
41058;DHT22;66768;48.884;2.258;2023-09-07T05:47:29;22.20;99.10
41058;DHT22;66768;48.884;2.258;2023-09-07T05:49:56;22.10;99.10
41058;DHT22;66768;48.884;2.258;2023-09-07T05:52:23;22.10;99.10
41058;DHT22;66768;48.884;2.258;2023-09-07T05:54:50;22.10;99.10
41058;DHT22;66768;48.884;2.258;2023-09-07T05:57:18;22.10;99.20
41058;DHT22;66768;48.884;2.258;2023-09-07T05:59:44;22.00;99.30
41058;DHT22;66768;48.884;2.258;2023-09-07T06:02:11;22.00;99.40
41058;DHT22;66768;48.884;2.258;2023-09-07T06:04:38;22.00;99.40
41058;DHT22;66768;48.884;2.258;2023-09-07T06:07:05;22.00;99.30
41058;DHT22;66768;48.884;2.258;2023-09-07T06:09:32;22.00;99.40
41058;DHT22;66768;48.884;2.258;2023-09-07T06:11:59;22.00;99.50
41058;DHT22;66768;48.884;2.258;2023-09-07T06:14:27;21.90;99.50
41058;DHT22;66768;48.884;2.258;2023-09-07T06:16:54;21.90;99.70
41058;DHT22;66768;48.884;2.258;2023-09-07T06:19:21;21.90;99.50
41058;DHT22;66768;48.884;2.258;2023-09-07T06:21:47;22.00;99.70
41058;DHT22;66768;48.884;2.258;2023-09-07T06:24:14;22.00;99.70
41058;DHT22;66768;48.884;2.258;2023-09-07T06:26:41;22.00;99.60
41058;DHT22;66768;48.884;2.258;2023-09-07T06:29:10;22.00;99.60
41058;DHT22;66768;48.884;2.258;2023-09-07T06:31:38;22.00;99.70
41058;DHT22;66768;48.884;2.258;2023-09-07T06:34:05;22.00;99.80
41058;DHT22;66768;48.884;2.258;2023-09-07T06:36:31;22.00;99.70
41058;DHT22;66768;48.884;2.258;2023-09-07T06:38:58;22.00;99.80
41058;DHT22;66768;48.884;2.258;2023-09-07T06:41:25;22.10;99.90
41058;DHT22;66768;48.884;2.258;2023-09-07T06:43:52;22.10;99.90
41058;DHT22;66768;48.884;2.258;2023-09-07T06:46:19;22.10;99.90
41058;DHT22;66768;48.884;2.258;2023-09-07T06:48:47;22.20;99.90
41058;DHT22;66768;48.884;2.258;2023-09-07T06:51:14;22.20;99.90
41058;DHT22;66768;48.884;2.258;2023-09-07T06:53:41;22.20;99.90
41058;DHT22;66768;48.884;2.258;2023-09-07T06:56:08;22.20;99.90
41058;DHT22;66768;48.884;2.258;2023-09-07T06:58:35;22.20;99.80
41058;DHT22;66768;48.884;2.258;2023-09-07T07:01:02;22.20;99.80
41058;DHT22;66768;48.884;2.258;2023-09-07T07:03:30;22.30;99.70
41058;DHT22;66768;48.884;2.258;2023-09-07T07:05:58;22.40;99.80
41058;DHT22;66768;48.884;2.258;2023-09-07T07:08:25;22.40;99.50
41058;DHT22;66768;48.884;2.258;2023-09-07T07:10:52;22.40;99.70
41058;DHT22;66768;48.884;2.258;2023-09-07T07:13:19;22.50;99.50
41058;DHT22;66768;48.884;2.258;2023-09-07T07:15:46;22.50;99.30
41058;DHT22;66768;48.884;2.258;2023-09-07T07:18:13;22.50;99.00
41058;DHT22;66768;48.884;2.258;2023-09-07T07:20:41;22.50;99.00
41058;DHT22;66768;48.884;2.258;2023-09-07T07:23:10;22.50;98.90
41058;DHT22;66768;48.884;2.258;2023-09-07T07:25:38;22.50;98.80
41058;DHT22;66768;48.884;2.258;2023-09-07T07:28:05;22.50;98.70
41058;DHT22;66768;48.884;2.258;2023-09-07T07:30:32;22.50;98.90
41058;DHT22;66768;48.884;2.258;2023-09-07T07:32:59;22.60;98.70
41058;DHT22;66768;48.884;2.258;2023-09-07T07:35:26;22.60;98.90
41058;DHT22;66768;48.884;2.258;2023-09-07T07:37:54;22.60;98.90
41058;DHT22;66768;48.884;2.258;2023-09-07T07:40:22;22.70;98.80
41058;DHT22;66768;48.884;2.258;2023-09-07T07:42:53;22.70;98.70
41058;DHT22;66768;48.884;2.258;2023-09-07T07:45:19;22.80;98.80
41058;DHT22;66768;48.884;2.258;2023-09-07T07:47:48;22.80;98.30
41058;DHT22;66768;48.884;2.258;2023-09-07T07:50:15;22.80;98.60
41058;DHT22;66768;48.884;2.258;2023-09-07T07:52:42;22.90;98.60
41058;DHT22;66768;48.884;2.258;2023-09-07T07:55:10;22.90;98.80
41058;DHT22;66768;48.884;2.258;2023-09-07T07:57:39;23.00;98.50
41058;DHT22;66768;48.884;2.258;2023-09-07T08:00:07;23.10;98.60
41058;DHT22;66768;48.884;2.258;2023-09-07T08:02:34;23.10;98.40
41058;DHT22;66768;48.884;2.258;2023-09-07T08:05:01;23.10;98.50
41058;DHT22;66768;48.884;2.258;2023-09-07T08:07:28;23.20;98.30
41058;DHT22;66768;48.884;2.258;2023-09-07T08:09:55;23.30;98.50
41058;DHT22;66768;48.884;2.258;2023-09-07T08:12:22;23.40;98.60
41058;DHT22;66768;48.884;2.258;2023-09-07T08:14:50;23.40;98.20
41058;DHT22;66768;48.884;2.258;2023-09-07T08:17:16;23.50;98.20
41058;DHT22;66768;48.884;2.258;2023-09-07T08:19:45;23.50;97.90
41058;DHT22;66768;48.884;2.258;2023-09-07T08:22:14;23.50;97.90
41058;DHT22;66768;48.884;2.258;2023-09-07T08:24:41;23.50;98.30
41058;DHT22;66768;48.884;2.258;2023-09-07T08:27:09;23.50;97.90
41058;DHT22;66768;48.884;2.258;2023-09-07T08:29:37;23.50;98.40
41058;DHT22;66768;48.884;2.258;2023-09-07T08:32:05;23.50;98.10
41058;DHT22;66768;48.884;2.258;2023-09-07T08:34:33;23.60;97.90
41058;DHT22;66768;48.884;2.258;2023-09-07T08:37:05;23.60;98.10
41058;DHT22;66768;48.884;2.258;2023-09-07T08:39:34;23.60;98.00
41058;DHT22;66768;48.884;2.258;2023-09-07T08:42:01;23.50;97.80
41058;DHT22;66768;48.884;2.258;2023-09-07T08:44:30;23.60;97.90
41058;DHT22;66768;48.884;2.258;2023-09-07T08:46:59;23.50;97.90
41058;DHT22;66768;48.884;2.258;2023-09-07T08:49:30;23.60;98.00
41058;DHT22;66768;48.884;2.258;2023-09-07T08:51:59;23.60;97.90
41058;DHT22;66768;48.884;2.258;2023-09-07T08:54:26;23.70;98.00
41058;DHT22;66768;48.884;2.258;2023-09-07T08:56:53;23.70;97.90
41058;DHT22;66768;48.884;2.258;2023-09-07T08:59:22;23.70;97.80
41058;DHT22;66768;48.884;2.258;2023-09-07T09:01:49;23.80;97.80
41058;DHT22;66768;48.884;2.258;2023-09-07T09:04:16;23.80;97.70
41058;DHT22;66768;48.884;2.258;2023-09-07T09:06:44;23.90;97.50
41058;DHT22;66768;48.884;2.258;2023-09-07T09:09:21;23.90;97.40
41058;DHT22;66768;48.884;2.258;2023-09-07T09:11:48;24.00;97.50
41058;DHT22;66768;48.884;2.258;2023-09-07T09:14:16;24.00;97.20
41058;DHT22;66768;48.884;2.258;2023-09-07T09:16:48;24.00;97.40
41058;DHT22;66768;48.884;2.258;2023-09-07T09:19:16;24.00;97.20
41058;DHT22;66768;48.884;2.258;2023-09-07T09:21:45;24.10;97.30
41058;DHT22;66768;48.884;2.258;2023-09-07T09:24:12;24.10;97.40
41058;DHT22;66768;48.884;2.258;2023-09-07T09:26:40;24.10;97.40
41058;DHT22;66768;48.884;2.258;2023-09-07T09:29:09;24.10;96.80
41058;DHT22;66768;48.884;2.258;2023-09-07T09:31:36;24.20;97.10
41058;DHT22;66768;48.884;2.258;2023-09-07T09:34:04;24.20;97.20
41058;DHT22;66768;48.884;2.258;2023-09-07T09:36:33;24.20;97.00
41058;DHT22;66768;48.884;2.258;2023-09-07T09:39:02;24.30;97.20
41058;DHT22;66768;48.884;2.258;2023-09-07T09:41:32;24.30;97.30
41058;DHT22;66768;48.884;2.258;2023-09-07T09:43:59;24.40;97.20
41058;DHT22;66768;48.884;2.258;2023-09-07T09:46:29;24.40;97.00
41058;DHT22;66768;48.884;2.258;2023-09-07T09:48:58;24.40;96.80
41058;DHT22;66768;48.884;2.258;2023-09-07T09:51:25;24.40;96.70
41058;DHT22;66768;48.884;2.258;2023-09-07T09:53:54;24.50;96.70
41058;DHT22;66768;48.884;2.258;2023-09-07T09:56:23;24.50;96.80
41058;DHT22;66768;48.884;2.258;2023-09-07T09:58:51;24.50;96.60
41058;DHT22;66768;48.884;2.258;2023-09-07T10:01:19;24.60;96.80
41058;DHT22;66768;48.884;2.258;2023-09-07T10:03:49;24.60;96.70
41058;DHT22;66768;48.884;2.258;2023-09-07T10:06:23;24.70;96.50
41058;DHT22;66768;48.884;2.258;2023-09-07T10:08:55;24.70;96.50
41058;DHT22;66768;48.884;2.258;2023-09-07T10:11:29;24.80;96.40
41058;DHT22;66768;48.884;2.258;2023-09-07T10:13:57;24.90;96.40
41058;DHT22;66768;48.884;2.258;2023-09-07T10:16:24;24.90;96.40
41058;DHT22;66768;48.884;2.258;2023-09-07T10:18:52;24.90;96.70
41058;DHT22;66768;48.884;2.258;2023-09-07T10:21:23;25.00;96.20
41058;DHT22;66768;48.884;2.258;2023-09-07T10:23:51;25.10;96.70
41058;DHT22;66768;48.884;2.258;2023-09-07T10:26:19;25.10;96.40
41058;DHT22;66768;48.884;2.258;2023-09-07T10:28:59;25.20;96.00
41058;DHT22;66768;48.884;2.258;2023-09-07T10:31:26;25.20;96.10
41058;DHT22;66768;48.884;2.258;2023-09-07T10:33:53;25.30;95.80
41058;DHT22;66768;48.884;2.258;2023-09-07T10:36:21;25.30;95.90
41058;DHT22;66768;48.884;2.258;2023-09-07T10:38:48;25.30;95.90
41058;DHT22;66768;48.884;2.258;2023-09-07T10:41:19;25.30;96.00
41058;DHT22;66768;48.884;2.258;2023-09-07T10:43:53;25.30;96.00
41058;DHT22;66768;48.884;2.258;2023-09-07T10:46:21;25.30;96.10
41058;DHT22;66768;48.884;2.258;2023-09-07T10:48:49;25.40;96.10
41058;DHT22;66768;48.884;2.258;2023-09-07T10:51:17;25.30;96.00
41058;DHT22;66768;48.884;2.258;2023-09-07T10:53:43;25.40;95.90
41058;DHT22;66768;48.884;2.258;2023-09-07T10:56:10;25.40;95.90
41058;DHT22;66768;48.884;2.258;2023-09-07T10:58:38;25.40;95.90
41058;DHT22;66768;48.884;2.258;2023-09-07T11:01:08;25.50;95.80
41058;DHT22;66768;48.884;2.258;2023-09-07T11:03:37;25.50;96.00
41058;DHT22;66768;48.884;2.258;2023-09-07T11:06:06;25.60;95.90
41058;DHT22;66768;48.884;2.258;2023-09-07T11:08:35;25.60;95.80
41058;DHT22;66768;48.884;2.258;2023-09-07T11:11:03;25.60;95.80
41058;DHT22;66768;48.884;2.258;2023-09-07T11:13:30;25.70;95.80
41058;DHT22;66768;48.884;2.258;2023-09-07T11:15:58;25.70;95.80
41058;DHT22;66768;48.884;2.258;2023-09-07T11:18:26;25.70;95.90
41058;DHT22;66768;48.884;2.258;2023-09-07T11:20:54;25.80;95.70
41058;DHT22;66768;48.884;2.258;2023-09-07T11:23:21;25.80;95.60
41058;DHT22;66768;48.884;2.258;2023-09-07T11:25:50;25.80;95.60
41058;DHT22;66768;48.884;2.258;2023-09-07T11:28:18;25.90;95.10
41058;DHT22;66768;48.884;2.258;2023-09-07T11:30:52;25.90;95.10
41058;DHT22;66768;48.884;2.258;2023-09-07T11:33:21;26.00;95.00
41058;DHT22;66768;48.884;2.258;2023-09-07T11:35:49;26.10;95.00
41058;DHT22;66768;48.884;2.258;2023-09-07T11:38:17;26.00;95.10
41058;DHT22;66768;48.884;2.258;2023-09-07T11:40:44;26.10;94.80
41058;DHT22;66768;48.884;2.258;2023-09-07T11:43:11;26.10;94.60
41058;DHT22;66768;48.884;2.258;2023-09-07T11:45:38;26.10;94.60
41058;DHT22;66768;48.884;2.258;2023-09-07T11:48:06;26.20;95.00
41058;DHT22;66768;48.884;2.258;2023-09-07T11:50:35;26.20;94.70
41058;DHT22;66768;48.884;2.258;2023-09-07T11:53:03;26.30;94.70
41058;DHT22;66768;48.884;2.258;2023-09-07T11:55:30;26.30;94.80
41058;DHT22;66768;48.884;2.258;2023-09-07T11:57:57;26.30;95.00
41058;DHT22;66768;48.884;2.258;2023-09-07T12:00:24;26.30;94.80
41058;DHT22;66768;48.884;2.258;2023-09-07T12:02:51;26.40;94.70
41058;DHT22;66768;48.884;2.258;2023-09-07T12:05:18;26.40;94.60
41058;DHT22;66768;48.884;2.258;2023-09-07T12:07:45;26.50;94.40
41058;DHT22;66768;48.884;2.258;2023-09-07T12:10:13;26.40;94.30
41058;DHT22;66768;48.884;2.258;2023-09-07T12:12:41;26.50;94.30
41058;DHT22;66768;48.884;2.258;2023-09-07T12:15:08;26.50;94.30
41058;DHT22;66768;48.884;2.258;2023-09-07T12:17:36;26.50;94.60
41058;DHT22;66768;48.884;2.258;2023-09-07T12:20:04;26.50;95.10
41058;DHT22;66768;48.884;2.258;2023-09-07T12:22:35;26.50;95.20
41058;DHT22;66768;48.884;2.258;2023-09-07T12:25:03;26.50;95.30
41058;DHT22;66768;48.884;2.258;2023-09-07T12:27:33;26.70;94.60
41058;DHT22;66768;48.884;2.258;2023-09-07T12:30:00;26.60;94.20
41058;DHT22;66768;48.884;2.258;2023-09-07T12:32:31;26.70;94.10
41058;DHT22;66768;48.884;2.258;2023-09-07T12:34:59;26.70;94.40
41058;DHT22;66768;48.884;2.258;2023-09-07T12:37:26;26.70;94.60
41058;DHT22;66768;48.884;2.258;2023-09-07T12:39:53;26.80;94.30
41058;DHT22;66768;48.884;2.258;2023-09-07T12:42:20;26.80;94.20
41058;DHT22;66768;48.884;2.258;2023-09-07T12:44:48;26.90;94.10
41058;DHT22;66768;48.884;2.258;2023-09-07T12:47:15;26.90;93.90
41058;DHT22;66768;48.884;2.258;2023-09-07T12:49:42;26.90;94.20
41058;DHT22;66768;48.884;2.258;2023-09-07T12:52:09;26.90;94.20
41058;DHT22;66768;48.884;2.258;2023-09-07T12:54:36;26.90;94.10
41058;DHT22;66768;48.884;2.258;2023-09-07T12:57:03;26.90;94.40
41058;DHT22;66768;48.884;2.258;2023-09-07T12:59:30;26.90;94.50
41058;DHT22;66768;48.884;2.258;2023-09-07T13:01:59;26.90;94.70
41058;DHT22;66768;48.884;2.258;2023-09-07T13:04:25;27.00;94.60
41058;DHT22;66768;48.884;2.258;2023-09-07T13:06:52;27.00;94.70
41058;DHT22;66768;48.884;2.258;2023-09-07T13:09:19;27.00;94.70
41058;DHT22;66768;48.884;2.258;2023-09-07T13:11:46;27.00;94.50
41058;DHT22;66768;48.884;2.258;2023-09-07T13:14:13;27.00;94.00
41058;DHT22;66768;48.884;2.258;2023-09-07T13:16:40;27.10;94.30
41058;DHT22;66768;48.884;2.258;2023-09-07T13:19:08;27.10;94.10
41058;DHT22;66768;48.884;2.258;2023-09-07T13:21:35;27.10;94.30
41058;DHT22;66768;48.884;2.258;2023-09-07T13:24:03;27.10;94.00
41058;DHT22;66768;48.884;2.258;2023-09-07T13:26:30;27.10;94.00
41058;DHT22;66768;48.884;2.258;2023-09-07T13:28:56;27.10;94.10
41058;DHT22;66768;48.884;2.258;2023-09-07T13:31:23;27.00;94.20
41058;DHT22;66768;48.884;2.258;2023-09-07T13:33:50;27.10;94.00
41058;DHT22;66768;48.884;2.258;2023-09-07T13:36:19;27.10;93.70
41058;DHT22;66768;48.884;2.258;2023-09-07T13:38:45;27.10;93.80
41058;DHT22;66768;48.884;2.258;2023-09-07T13:41:12;27.10;93.90
41058;DHT22;66768;48.884;2.258;2023-09-07T13:43:39;27.10;94.20
41058;DHT22;66768;48.884;2.258;2023-09-07T13:46:06;27.00;94.30
41058;DHT22;66768;48.884;2.258;2023-09-07T13:48:33;27.00;94.30
41058;DHT22;66768;48.884;2.258;2023-09-07T13:51:00;27.00;94.50
41058;DHT22;66768;48.884;2.258;2023-09-07T13:53:28;27.00;94.40
41058;DHT22;66768;48.884;2.258;2023-09-07T13:55:55;27.00;94.20
41058;DHT22;66768;48.884;2.258;2023-09-07T13:58:22;27.00;93.90
41058;DHT22;66768;48.884;2.258;2023-09-07T14:00:48;27.10;93.70
41058;DHT22;66768;48.884;2.258;2023-09-07T14:03:16;27.00;93.80
41058;DHT22;66768;48.884;2.258;2023-09-07T14:05:43;27.10;93.90
41058;DHT22;66768;48.884;2.258;2023-09-07T14:08:10;27.10;93.90
41058;DHT22;66768;48.884;2.258;2023-09-07T14:10:38;27.10;93.90
41058;DHT22;66768;48.884;2.258;2023-09-07T14:13:05;27.10;93.70
41058;DHT22;66768;48.884;2.258;2023-09-07T14:15:32;27.10;93.90
41058;DHT22;66768;48.884;2.258;2023-09-07T14:17:58;27.10;94.10
41058;DHT22;66768;48.884;2.258;2023-09-07T14:20:27;27.10;93.80
41058;DHT22;66768;48.884;2.258;2023-09-07T14:22:54;27.10;93.50
41058;DHT22;66768;48.884;2.258;2023-09-07T14:25:22;27.10;93.50
41058;DHT22;66768;48.884;2.258;2023-09-07T14:27:51;27.10;93.60
41058;DHT22;66768;48.884;2.258;2023-09-07T14:30:18;27.10;93.70
41058;DHT22;66768;48.884;2.258;2023-09-07T14:32:45;27.10;94.20
41058;DHT22;66768;48.884;2.258;2023-09-07T14:35:12;27.10;93.90
41058;DHT22;66768;48.884;2.258;2023-09-07T14:37:39;27.10;94.20
41058;DHT22;66768;48.884;2.258;2023-09-07T14:40:07;27.20;93.70
41058;DHT22;66768;48.884;2.258;2023-09-07T14:42:34;27.10;93.40
41058;DHT22;66768;48.884;2.258;2023-09-07T14:45:03;27.10;93.40
41058;DHT22;66768;48.884;2.258;2023-09-07T14:47:30;27.20;93.40
41058;DHT22;66768;48.884;2.258;2023-09-07T14:49:57;27.20;93.40
41058;DHT22;66768;48.884;2.258;2023-09-07T14:52:24;27.20;93.40
41058;DHT22;66768;48.884;2.258;2023-09-07T14:54:51;27.20;93.40
41058;DHT22;66768;48.884;2.258;2023-09-07T14:57:18;27.20;93.60
41058;DHT22;66768;48.884;2.258;2023-09-07T14:59:45;27.20;93.60
41058;DHT22;66768;48.884;2.258;2023-09-07T15:02:13;27.20;93.60
41058;DHT22;66768;48.884;2.258;2023-09-07T15:04:40;27.20;93.60
41058;DHT22;66768;48.884;2.258;2023-09-07T15:07:08;27.20;93.60
41058;DHT22;66768;48.884;2.258;2023-09-07T15:09:35;27.20;93.40
41058;DHT22;66768;48.884;2.258;2023-09-07T15:12:02;27.20;93.10
41058;DHT22;66768;48.884;2.258;2023-09-07T15:14:29;27.20;93.10
41058;DHT22;66768;48.884;2.258;2023-09-07T15:16:56;27.30;93.10
41058;DHT22;66768;48.884;2.258;2023-09-07T15:19:24;27.20;93.00
41058;DHT22;66768;48.884;2.258;2023-09-07T15:21:51;27.30;92.40
41058;DHT22;66768;48.884;2.258;2023-09-07T15:24:18;27.40;92.20
41058;DHT22;66768;48.884;2.258;2023-09-07T15:26:45;27.30;92.10
41058;DHT22;66768;48.884;2.258;2023-09-07T15:29:13;27.40;92.30
41058;DHT22;66768;48.884;2.258;2023-09-07T15:31:40;27.40;92.50